createdAt,value
2023-05-24T00:00:57.110Z,11.10
2023-05-24T00:03:24.232Z,11.10
2023-05-24T00:05:52.491Z,11.00
2023-05-24T00:08:19.739Z,11.00
2023-05-24T00:10:46.769Z,11.00
2023-05-24T00:13:15.183Z,11.10
2023-05-24T00:15:42.096Z,11.00
2023-05-24T00:18:09.052Z,11.00
2023-05-24T00:20:36.706Z,11.00
2023-05-24T00:23:03.720Z,11.00
2023-05-24T00:25:31.040Z,11.00
2023-05-24T00:27:57.941Z,11.00
2023-05-24T00:30:24.924Z,11.00
2023-05-24T00:32:52.191Z,10.80
2023-05-24T00:35:19.275Z,10.80
2023-05-24T00:37:46.418Z,10.80
2023-05-24T00:40:13.849Z,10.70
2023-05-24T00:42:41.358Z,10.60
2023-05-24T00:45:09.388Z,10.60
2023-05-24T00:47:36.809Z,10.50
2023-05-24T00:50:04.638Z,10.50
2023-05-24T00:52:32.485Z,10.40
2023-05-24T00:54:59.569Z,10.30
2023-05-24T00:57:27.293Z,10.30
2023-05-24T00:59:56.608Z,10.20
2023-05-24T01:02:25.312Z,10.20
2023-05-24T01:04:52.448Z,10.20
2023-05-24T01:07:55.558Z,10.30
2023-05-24T01:10:47.488Z,10.30
2023-05-24T01:13:48.410Z,10.40
2023-05-24T01:16:36.969Z,10.50
2023-05-24T01:19:43.122Z,10.50
2023-05-24T01:22:46.566Z,10.60
2023-05-24T01:25:46.857Z,10.60
2023-05-24T01:28:17.367Z,10.60
2023-05-24T01:30:45.638Z,10.50
2023-05-24T01:33:13.019Z,10.50
2023-05-24T01:35:42.133Z,10.50
2023-05-24T01:38:14.266Z,10.50
2023-05-24T01:40:42.105Z,10.50
2023-05-24T01:43:37.759Z,10.40
2023-05-24T01:46:25.290Z,10.30
2023-05-24T01:49:27.276Z,10.20
2023-05-24T01:52:19.497Z,10.10
2023-05-24T01:54:52.992Z,10.00
2023-05-24T01:57:23.470Z,10.00
2023-05-24T01:59:53.689Z,10.00
2023-05-24T02:02:21.110Z,9.90
2023-05-24T02:04:48.225Z,9.90
2023-05-24T02:07:15.425Z,9.80
2023-05-24T02:09:42.525Z,9.80
2023-05-24T02:12:10.779Z,9.70
2023-05-24T02:14:37.949Z,9.70
2023-05-24T02:17:05.965Z,9.70
2023-05-24T02:19:34.581Z,9.60
2023-05-24T02:22:01.675Z,9.60
2023-05-24T02:24:28.675Z,9.50
2023-05-24T02:26:56.004Z,9.40
2023-05-24T02:29:23.218Z,9.40
2023-05-24T02:31:54.902Z,9.30
2023-05-24T02:34:23.410Z,9.30
2023-05-24T02:36:51.905Z,9.20
2023-05-24T02:39:18.811Z,9.10
2023-05-24T02:41:45.825Z,9.10
2023-05-24T02:44:12.926Z,9.00
2023-05-24T02:46:40.027Z,8.90
2023-05-24T02:49:07.104Z,8.80
2023-05-24T02:51:34.036Z,8.70
2023-05-24T02:54:01.119Z,8.60
2023-05-24T02:56:29.040Z,8.60
2023-05-24T02:58:56.483Z,8.60
2023-05-24T03:01:23.506Z,8.50
2023-05-24T03:03:50.871Z,8.50
2023-05-24T03:06:17.823Z,8.40
2023-05-24T03:08:44.805Z,8.40
2023-05-24T03:11:11.846Z,8.40
2023-05-24T03:13:38.771Z,8.30
2023-05-24T03:16:06.411Z,8.30
2023-05-24T03:18:33.401Z,8.30
2023-05-24T03:21:00.312Z,8.30
2023-05-24T03:23:27.551Z,8.30
2023-05-24T03:25:54.617Z,8.30
2023-05-24T03:28:22.225Z,8.40
2023-05-24T03:30:49.326Z,8.40
2023-05-24T03:33:16.513Z,8.40
2023-05-24T03:35:43.473Z,8.40
2023-05-24T03:38:10.794Z,8.40
2023-05-24T03:40:38.400Z,8.50
2023-05-24T03:43:05.456Z,8.50
2023-05-24T03:45:39.155Z,8.50
2023-05-24T03:48:07.304Z,8.60
2023-05-24T03:50:34.775Z,8.60
2023-05-24T03:53:01.780Z,8.60
2023-05-24T03:55:28.792Z,8.60
2023-05-24T03:57:55.748Z,8.60
2023-05-24T04:00:22.846Z,8.60
2023-05-24T04:02:50.071Z,8.60
2023-05-24T04:05:17.284Z,8.60
2023-05-24T04:07:46.196Z,8.70
2023-05-24T04:10:13.418Z,8.70
2023-05-24T04:12:42.031Z,8.70
2023-05-24T04:15:09.914Z,8.70
2023-05-24T04:17:37.157Z,8.70
2023-05-24T04:20:05.886Z,8.70
2023-05-24T04:22:32.951Z,8.70
2023-05-24T04:25:00.042Z,8.80
2023-05-24T04:27:27.345Z,8.80
2023-05-24T04:29:54.324Z,8.90
2023-05-24T04:32:21.341Z,9.00
2023-05-24T04:34:48.251Z,9.10
2023-05-24T04:37:17.079Z,9.20
2023-05-24T04:39:45.462Z,9.20
2023-05-24T04:42:13.258Z,9.20
2023-05-24T04:44:43.455Z,9.20
2023-05-24T04:47:10.659Z,9.20
2023-05-24T04:49:37.720Z,9.20
2023-05-24T04:52:06.186Z,9.30
2023-05-24T04:54:34.167Z,9.40
2023-05-24T04:57:01.181Z,9.50
2023-05-24T04:59:28.136Z,9.70
2023-05-24T05:01:55.078Z,9.70
2023-05-24T05:04:22.002Z,9.90
2023-05-24T05:06:49.061Z,9.90
2023-05-24T05:09:16.147Z,9.90
2023-05-24T05:11:43.335Z,10.00
2023-05-24T05:14:10.636Z,9.80
2023-05-24T05:16:38.924Z,9.80
2023-05-24T05:19:06.067Z,9.70
2023-05-24T05:21:34.848Z,9.60
2023-05-24T05:24:03.970Z,9.60
2023-05-24T05:26:31.381Z,9.50
2023-05-24T05:28:58.659Z,9.60
2023-05-24T05:31:25.746Z,9.60
2023-05-24T05:33:52.955Z,9.60
2023-05-24T05:36:19.906Z,9.70
2023-05-24T05:38:46.935Z,9.90
2023-05-24T05:41:13.973Z,10.10
2023-05-24T05:43:40.934Z,10.10
2023-05-24T05:46:07.937Z,10.20
2023-05-24T05:48:34.927Z,10.20
2023-05-24T05:51:01.906Z,10.20
2023-05-24T05:53:28.995Z,10.20
2023-05-24T05:55:56.556Z,10.30
2023-05-24T05:58:23.494Z,10.40
2023-05-24T06:00:51.822Z,10.30
2023-05-24T06:03:19.024Z,10.20
2023-05-24T06:05:46.142Z,10.10
2023-05-24T06:08:13.152Z,10.30
2023-05-24T06:10:40.319Z,10.30
2023-05-24T06:13:07.628Z,10.50
2023-05-24T06:15:34.598Z,10.60
2023-05-24T06:18:05.067Z,10.60
2023-05-24T06:20:32.087Z,10.70
2023-05-24T06:22:59.962Z,10.70
2023-05-24T06:25:29.329Z,10.70
2023-05-24T06:27:56.899Z,10.80
2023-05-24T06:30:24.042Z,11.10
2023-05-24T06:32:51.097Z,11.10
2023-05-24T06:35:18.161Z,10.90
2023-05-24T06:37:45.204Z,11.00
2023-05-24T06:40:13.093Z,11.20
2023-05-24T06:42:40.372Z,11.20
2023-05-24T06:45:09.230Z,11.30
2023-05-24T06:47:36.737Z,11.30
2023-05-24T06:50:05.181Z,11.20
2023-05-24T06:52:32.178Z,11.20
2023-05-24T06:54:59.105Z,11.30
2023-05-24T06:57:26.985Z,11.50
2023-05-24T06:59:53.918Z,11.60
2023-05-24T07:02:26.418Z,11.70
2023-05-24T07:04:54.087Z,11.70
2023-05-24T07:07:21.617Z,12.00
2023-05-24T07:09:48.586Z,11.80
2023-05-24T07:12:15.789Z,11.90
2023-05-24T07:14:42.782Z,12.20
2023-05-24T07:17:09.965Z,12.30
2023-05-24T07:19:37.117Z,12.50
2023-05-24T07:22:08.421Z,12.40
2023-05-24T07:24:36.432Z,12.70
2023-05-24T07:27:05.142Z,12.90
2023-05-24T07:29:32.118Z,12.70
2023-05-24T07:31:59.117Z,12.70
2023-05-24T07:34:27.931Z,12.60
2023-05-24T07:36:54.902Z,12.70
2023-05-24T07:39:22.020Z,12.80
2023-05-24T07:41:49.004Z,12.90
2023-05-24T07:44:15.989Z,12.90
2023-05-24T07:46:43.033Z,12.90
2023-05-24T07:49:10.056Z,13.00
2023-05-24T07:51:38.857Z,13.20
2023-05-24T07:54:06.214Z,13.60
2023-05-24T07:56:33.544Z,13.60
2023-05-24T07:59:04.716Z,13.90
2023-05-24T08:03:39.440Z,14.30
2023-05-24T08:06:06.523Z,14.40
2023-05-24T08:08:33.768Z,14.20
2023-05-24T08:11:00.823Z,14.20
2023-05-24T08:13:27.860Z,14.30
2023-05-24T08:15:54.897Z,14.40
2023-05-24T08:18:21.850Z,14.60
2023-05-24T08:20:48.837Z,14.80
2023-05-24T08:23:15.873Z,14.40
2023-05-24T08:25:43.074Z,13.80
2023-05-24T08:28:10.989Z,13.40
2023-05-24T08:30:38.458Z,13.40
2023-05-24T08:33:05.508Z,13.40
2023-05-24T08:35:32.466Z,13.30
2023-05-24T08:37:59.360Z,13.30
2023-05-24T08:40:26.524Z,13.30
2023-05-24T08:42:55.132Z,13.20
2023-05-24T08:45:22.776Z,13.30
2023-05-24T08:47:51.891Z,13.30
2023-05-24T08:50:20.302Z,13.60
2023-05-24T08:52:48.902Z,13.80
2023-05-24T08:55:16.979Z,13.80
2023-05-24T08:57:45.969Z,13.60
2023-05-24T09:00:14.122Z,13.50
2023-05-24T09:02:45.134Z,13.50
2023-05-24T09:05:16.871Z,13.30
2023-05-24T09:07:46.385Z,13.30
2023-05-24T09:10:15.159Z,13.40
2023-05-24T09:12:52.993Z,13.60
2023-05-24T09:15:19.891Z,13.70
2023-05-24T09:17:47.487Z,13.90
2023-05-24T09:20:14.730Z,13.80
2023-05-24T09:22:43.818Z,13.40
2023-05-24T09:25:14.759Z,13.40
2023-05-24T09:27:42.945Z,13.50
2023-05-24T09:30:12.332Z,13.90
2023-05-24T09:32:39.694Z,13.90
2023-05-24T09:35:12.508Z,14.00
2023-05-24T09:37:40.424Z,13.90
2023-05-24T09:40:22.552Z,14.30
2023-05-24T09:43:02.576Z,14.50
2023-05-24T09:45:29.621Z,14.90
2023-05-24T09:47:56.664Z,15.20
2023-05-24T09:50:23.645Z,15.40
2023-05-24T09:52:51.816Z,15.60
2023-05-24T09:55:20.478Z,16.00
2023-05-24T09:58:12.845Z,16.20
2023-05-24T10:00:42.267Z,16.70
2023-05-24T10:03:12.957Z,16.70
2023-05-24T10:05:45.552Z,16.40
2023-05-24T10:08:14.246Z,16.20
2023-05-24T10:10:42.725Z,16.20
2023-05-24T10:13:11.505Z,16.10
2023-05-24T10:15:38.892Z,15.40
2023-05-24T10:18:10.457Z,15.20
2023-05-24T10:20:41.456Z,14.80
2023-05-24T10:23:15.086Z,14.70
2023-05-24T10:25:55.655Z,15.20
2023-05-24T10:28:26.190Z,15.60
2023-05-24T10:31:12.419Z,15.70
2023-05-24T10:33:44.913Z,15.60
2023-05-24T10:36:16.002Z,15.40
2023-05-24T10:38:46.534Z,15.60
2023-05-24T10:41:13.914Z,15.50
2023-05-24T10:43:53.739Z,15.70
2023-05-24T10:46:28.255Z,15.80
2023-05-24T10:49:02.781Z,15.70
2023-05-24T10:51:39.333Z,15.30
2023-05-24T10:54:27.037Z,15.00
2023-05-24T10:56:54.552Z,14.80
2023-05-24T10:59:35.166Z,14.50
2023-05-24T11:02:04.123Z,14.10
2023-05-24T11:04:36.491Z,13.80
2023-05-24T11:07:09.442Z,12.80
2023-05-24T11:09:46.817Z,12.40
2023-05-24T11:12:20.909Z,12.20
2023-05-24T11:14:54.270Z,12.20
2023-05-24T11:17:23.795Z,12.10
2023-05-24T11:19:55.597Z,12.00
2023-05-24T11:22:26.922Z,12.00
2023-05-24T11:24:54.061Z,12.30
2023-05-24T11:27:21.505Z,12.60
2023-05-24T11:29:48.919Z,12.80
2023-05-24T11:32:21.096Z,13.10
2023-05-24T11:34:49.453Z,13.50
2023-05-24T11:37:18.281Z,13.70
2023-05-24T11:39:54.169Z,13.60
2023-05-24T11:42:24.917Z,13.40
2023-05-24T11:44:54.000Z,13.60
2023-05-24T11:47:22.441Z,13.70
2023-05-24T11:49:52.673Z,14.30
2023-05-24T11:52:20.505Z,15.00
2023-05-24T11:54:50.511Z,15.40
2023-05-24T11:57:30.668Z,15.80
2023-05-24T11:59:58.460Z,15.80
2023-05-24T12:02:25.437Z,15.90
2023-05-24T12:04:52.486Z,16.20
2023-05-24T12:07:19.537Z,15.80
2023-05-24T12:09:46.606Z,15.80
2023-05-24T12:12:13.614Z,15.70
2023-05-24T12:14:40.722Z,15.50
2023-05-24T12:17:17.849Z,15.00
2023-05-24T12:19:44.987Z,15.00
2023-05-24T12:22:12.014Z,15.00
2023-05-24T12:24:39.010Z,15.10
2023-05-24T12:27:10.128Z,15.00
2023-05-24T12:29:41.696Z,15.00
2023-05-24T12:32:15.541Z,14.60
2023-05-24T12:34:45.096Z,14.90
2023-05-24T12:37:14.454Z,15.10
2023-05-24T12:39:43.108Z,15.30
2023-05-24T12:42:13.239Z,15.40
2023-05-24T12:44:40.911Z,15.60
2023-05-24T12:47:09.094Z,15.60
2023-05-24T12:49:36.560Z,15.30
2023-05-24T12:52:04.267Z,15.20
2023-05-24T12:54:31.670Z,15.60
2023-05-24T12:57:02.619Z,15.70
2023-05-24T12:59:30.272Z,15.50
2023-05-24T13:01:58.284Z,15.50
2023-05-24T13:04:26.915Z,15.30
2023-05-24T13:06:54.002Z,15.60
2023-05-24T13:09:22.931Z,15.90
2023-05-24T13:11:50.042Z,16.30
2023-05-24T13:14:18.207Z,16.40
2023-05-24T13:16:45.846Z,16.70
2023-05-24T13:19:13.226Z,16.80
2023-05-24T13:21:40.745Z,16.60
2023-05-24T13:24:08.589Z,15.80
2023-05-24T13:26:38.722Z,15.70
2023-05-24T13:31:40.703Z,15.80
2023-05-24T13:34:11.640Z,15.70
2023-05-24T13:36:39.176Z,16.10
2023-05-24T13:41:41.028Z,16.50
2023-05-24T13:44:08.667Z,16.70
2023-05-24T13:46:36.252Z,16.90
2023-05-24T13:49:03.598Z,16.80
2023-05-24T13:51:30.756Z,16.50
2023-05-24T13:53:57.814Z,16.70
2023-05-24T13:56:25.869Z,16.80
2023-05-24T13:58:53.647Z,16.80
2023-05-24T14:01:20.687Z,16.70
2023-05-24T14:03:47.897Z,16.90
2023-05-24T14:06:15.054Z,17.00
2023-05-24T14:08:42.446Z,17.20
2023-05-24T14:11:09.781Z,17.30
2023-05-24T14:16:08.775Z,17.80
2023-05-24T14:18:36.455Z,17.80
2023-05-24T14:21:03.684Z,17.80
2023-05-24T14:23:31.801Z,17.90
2023-05-24T14:25:59.600Z,18.10
2023-05-24T14:28:26.901Z,18.10
2023-05-24T14:30:54.009Z,17.70
2023-05-24T14:33:20.955Z,17.70
2023-05-24T14:35:48.071Z,17.50
2023-05-24T14:38:15.300Z,17.30
2023-05-24T14:40:42.437Z,16.50
2023-05-24T14:43:10.659Z,16.30
2023-05-24T14:45:39.575Z,16.20
2023-05-24T14:48:10.511Z,16.10
2023-05-24T14:50:39.887Z,16.00
2023-05-24T14:53:11.707Z,16.20
2023-05-24T14:55:41.661Z,16.80
2023-05-24T14:58:09.496Z,17.60
2023-05-24T15:00:38.374Z,18.20
2023-05-24T15:03:06.192Z,18.70
2023-05-24T15:05:34.596Z,19.00
2023-05-24T15:08:01.620Z,18.90
2023-05-24T15:10:28.574Z,18.90
2023-05-24T15:12:55.503Z,19.70
2023-05-24T15:15:23.355Z,19.90
2023-05-24T15:17:50.323Z,20.00
2023-05-24T15:20:17.486Z,21.00
2023-05-24T15:22:44.466Z,21.90
2023-05-24T15:25:11.530Z,22.30
2023-05-24T15:27:39.893Z,21.50
2023-05-24T15:30:08.004Z,21.30
2023-05-24T15:32:34.978Z,21.80
2023-05-24T15:35:02.440Z,22.30
2023-05-24T15:37:29.405Z,23.20
2023-05-24T15:39:56.386Z,23.40
2023-05-24T15:42:24.952Z,22.80
2023-05-24T15:44:52.013Z,22.90
2023-05-24T15:47:21.987Z,22.90
2023-05-24T15:49:49.727Z,22.50
2023-05-24T15:52:16.999Z,22.20
2023-05-24T15:54:44.152Z,22.40
2023-05-24T15:57:11.155Z,22.50
2023-05-24T15:59:38.696Z,22.70
2023-05-24T16:02:09.431Z,21.80
2023-05-24T16:04:36.533Z,21.70
2023-05-24T16:07:03.589Z,22.00
2023-05-24T16:09:31.025Z,21.90
2023-05-24T16:11:57.944Z,21.80
2023-05-24T16:14:25.953Z,21.80
2023-05-24T16:16:53.178Z,21.80
2023-05-24T16:19:20.115Z,22.30
2023-05-24T16:21:47.169Z,21.80
2023-05-24T16:24:14.278Z,21.70
2023-05-24T16:26:41.481Z,21.10
2023-05-24T16:29:10.382Z,20.30
2023-05-24T16:31:37.548Z,20.00
2023-05-24T16:34:04.501Z,19.10
2023-05-24T16:36:31.899Z,18.20
2023-05-24T16:38:59.236Z,17.60
2023-05-24T16:41:27.221Z,17.50
2023-05-24T16:43:54.173Z,17.40
2023-05-24T16:46:21.448Z,17.80
2023-05-24T16:48:48.421Z,18.60
2023-05-24T16:51:16.416Z,19.00
2023-05-24T16:53:43.325Z,18.60
2023-05-24T16:56:10.222Z,18.00
2023-05-24T16:58:37.379Z,17.60
2023-05-24T17:01:04.377Z,17.80
2023-05-24T17:03:32.655Z,18.10
2023-05-24T17:06:05.257Z,18.40
2023-05-24T17:08:35.898Z,18.50
2023-05-24T17:11:04.724Z,18.70
2023-05-24T17:13:32.153Z,18.90
2023-05-24T17:16:00.046Z,18.70
2023-05-24T17:18:29.961Z,18.10
2023-05-24T17:20:58.983Z,17.50
2023-05-24T17:23:29.372Z,17.20
2023-05-24T17:25:56.921Z,17.30
2023-05-24T17:28:28.760Z,17.40
2023-05-24T17:31:01.326Z,17.10
2023-05-24T17:33:30.787Z,16.70
2023-05-24T17:36:02.541Z,16.70
2023-05-24T17:38:32.825Z,16.70
2023-05-24T17:40:59.987Z,16.20
2023-05-24T17:43:32.721Z,16.00
2023-05-24T17:46:03.781Z,15.70
2023-05-24T17:48:33.183Z,15.70
2023-05-24T17:51:01.935Z,15.80
2023-05-24T17:53:32.190Z,15.60
2023-05-24T17:56:00.103Z,15.40
2023-05-24T17:58:28.423Z,15.40
2023-05-24T18:00:55.522Z,15.40
2023-05-24T18:03:23.987Z,15.50
2023-05-24T18:05:51.000Z,15.40
2023-05-24T18:08:18.130Z,15.30
2023-05-24T18:10:45.704Z,15.20
2023-05-24T18:13:13.076Z,14.90
2023-05-24T18:15:40.359Z,14.50
2023-05-24T18:18:07.424Z,14.10
2023-05-24T18:20:34.475Z,13.70
2023-05-24T18:23:01.611Z,13.40
2023-05-24T18:25:28.654Z,13.10
2023-05-24T18:27:56.122Z,12.80
2023-05-24T18:30:23.116Z,12.60
2023-05-24T18:33:04.323Z,12.40
2023-05-24T18:35:32.876Z,12.30
2023-05-24T18:38:00.072Z,12.10
2023-05-24T18:40:27.221Z,12.00
2023-05-24T18:42:54.141Z,11.80
2023-05-24T18:45:21.121Z,11.70
2023-05-24T18:47:48.156Z,11.50
2023-05-24T18:50:15.243Z,11.40
2023-05-24T18:52:42.143Z,11.20
2023-05-24T18:55:12.152Z,11.10
2023-05-24T18:57:39.334Z,10.90
2023-05-24T19:00:07.693Z,10.80
2023-05-24T19:02:39.055Z,10.70
2023-05-24T19:05:08.190Z,10.60
2023-05-24T19:07:36.567Z,10.40
2023-05-24T19:10:04.510Z,10.30
2023-05-24T19:12:31.800Z,10.20
2023-05-24T19:15:02.359Z,10.20
2023-05-24T19:17:29.348Z,10.10
2023-05-24T19:19:56.295Z,10.00
2023-05-24T19:22:23.375Z,10.00
2023-05-24T19:24:50.410Z,9.90
2023-05-24T19:27:17.330Z,9.80
2023-05-24T19:29:44.228Z,9.70
2023-05-24T19:32:11.465Z,9.60
2023-05-24T19:34:41.965Z,9.50
2023-05-24T19:37:09.744Z,9.30
2023-05-24T19:39:37.576Z,9.10
2023-05-24T19:42:05.135Z,9.00
2023-05-24T19:44:32.119Z,9.00
2023-05-24T19:46:59.031Z,8.80
2023-05-24T19:49:26.080Z,8.70
2023-05-24T19:51:53.185Z,8.70
2023-05-24T19:54:20.986Z,8.70
2023-05-24T19:56:51.817Z,8.70
2023-05-24T19:59:19.504Z,8.70
2023-05-24T20:01:46.492Z,8.70
2023-05-24T20:04:13.609Z,8.60
2023-05-24T20:06:40.968Z,8.60
2023-05-24T20:09:08.443Z,8.50
2023-05-24T20:11:35.415Z,8.40
2023-05-24T20:14:03.008Z,8.40
2023-05-24T20:16:31.153Z,8.30
2023-05-24T20:18:58.115Z,8.30
2023-05-24T20:21:25.049Z,8.30
2023-05-24T20:23:57.744Z,8.30
2023-05-24T20:26:25.573Z,8.30
2023-05-24T20:28:52.526Z,8.30
2023-05-24T20:31:19.543Z,8.30
2023-05-24T20:33:46.506Z,8.50
2023-05-24T20:36:14.906Z,8.50
2023-05-24T20:38:42.177Z,8.60
2023-05-24T20:41:09.158Z,8.60
2023-05-24T20:43:36.152Z,8.60
2023-05-24T20:46:03.520Z,8.60
2023-05-24T20:48:30.500Z,8.70
2023-05-24T20:50:58.133Z,8.70
2023-05-24T20:53:25.068Z,8.80
2023-05-24T20:55:52.069Z,8.80
2023-05-24T20:58:19.016Z,8.90
2023-05-24T21:00:46.171Z,8.90
2023-05-24T21:03:13.345Z,8.90
2023-05-24T21:05:40.485Z,8.90
2023-05-24T21:08:07.569Z,9.00
2023-05-24T21:10:35.406Z,9.00
2023-05-24T21:13:02.309Z,9.00
2023-05-24T21:15:29.322Z,9.00
2023-05-24T21:17:56.238Z,9.00
2023-05-24T21:20:23.681Z,9.10
2023-05-24T21:22:50.753Z,9.10
2023-05-24T21:25:17.733Z,9.10
2023-05-24T21:27:44.677Z,9.00
2023-05-24T21:30:12.733Z,9.00
2023-05-24T21:32:39.843Z,9.00
2023-05-24T21:35:07.632Z,8.90
2023-05-24T21:37:34.574Z,8.90
2023-05-24T21:40:01.542Z,8.80
2023-05-24T21:42:28.478Z,8.80
2023-05-24T21:44:55.451Z,8.80
2023-05-24T21:47:22.465Z,8.90
2023-05-24T21:49:50.850Z,8.80
2023-05-24T21:52:19.576Z,8.80
2023-05-24T21:54:46.492Z,8.90
2023-05-24T21:57:13.411Z,8.90
2023-05-24T21:59:40.391Z,9.00
2023-05-24T22:02:07.346Z,9.00
2023-05-24T22:04:34.453Z,9.00
2023-05-24T22:07:01.419Z,9.10
2023-05-24T22:09:28.341Z,9.10
2023-05-24T22:11:55.445Z,9.10
2023-05-24T22:14:22.367Z,9.10
2023-05-24T22:16:49.536Z,9.10
2023-05-24T22:19:20.327Z,9.00
2023-05-24T22:21:52.769Z,9.10
2023-05-24T22:24:19.769Z,9.00
2023-05-24T22:26:47.039Z,9.10
2023-05-24T22:29:14.753Z,9.00
2023-05-24T22:31:41.898Z,9.10
2023-05-24T22:34:11.899Z,9.10
2023-05-24T22:36:39.125Z,9.10
2023-05-24T22:39:07.100Z,9.20
2023-05-24T22:41:34.164Z,9.20
2023-05-24T22:44:01.223Z,9.10
2023-05-24T22:46:28.206Z,9.10
2023-05-24T22:48:57.886Z,9.10
2023-05-24T22:51:26.073Z,9.10
2023-05-24T22:53:53.041Z,9.20
2023-05-24T22:56:20.576Z,9.20
2023-05-24T22:58:47.577Z,9.10
2023-05-24T23:01:16.739Z,9.00
2023-05-24T23:03:43.712Z,8.90
2023-05-24T23:06:12.213Z,8.90
2023-05-24T23:08:39.542Z,8.90
2023-05-24T23:11:10.307Z,8.90
2023-05-24T23:13:38.112Z,8.80
2023-05-24T23:16:05.675Z,8.80
2023-05-24T23:18:32.841Z,8.70
2023-05-24T23:21:02.955Z,8.70
2023-05-24T23:23:29.999Z,8.60
2023-05-24T23:25:56.977Z,8.60
2023-05-24T23:28:23.893Z,8.60
2023-05-24T23:30:50.878Z,8.60
2023-05-24T23:33:17.875Z,8.60
2023-05-24T23:35:45.128Z,8.60
2023-05-24T23:38:14.892Z,8.60
2023-05-24T23:40:42.351Z,8.60
2023-05-24T23:43:09.499Z,8.60
2023-05-24T23:45:36.528Z,8.50
2023-05-24T23:48:03.767Z,8.50
2023-05-24T23:50:37.326Z,8.50
2023-05-24T23:53:09.940Z,8.50
2023-05-24T23:55:37.192Z,8.60
2023-05-24T23:58:04.108Z,8.60
